sensor_id;sensor_type;location;lat;lon;timestamp;P1;durP1;ratioP1;P2;durP2;ratioP2
16330;SDS011;8275;48.206;16.340;2024-01-27T00:01:07;1.48;;;1.10;;
16330;SDS011;8275;48.206;16.340;2024-01-27T00:03:35;1.60;;;1.08;;
16330;SDS011;8275;48.206;16.340;2024-01-27T00:06:05;1.98;;;1.27;;
16330;SDS011;8275;48.206;16.340;2024-01-27T00:08:35;2.20;;;1.10;;
16330;SDS011;8275;48.206;16.340;2024-01-27T00:11:03;2.58;;;1.23;;
16330;SDS011;8275;48.206;16.340;2024-01-27T00:13:32;2.70;;;1.58;;
16330;SDS011;8275;48.206;16.340;2024-01-27T00:16:01;2.97;;;1.30;;
16330;SDS011;8275;48.206;16.340;2024-01-27T00:18:30;1.35;;;1.02;;
16330;SDS011;8275;48.206;16.340;2024-01-27T00:20:59;1.70;;;0.90;;
16330;SDS011;8275;48.206;16.340;2024-01-27T00:23:28;1.77;;;1.38;;
16330;SDS011;8275;48.206;16.340;2024-01-27T00:25:58;1.63;;;1.08;;
16330;SDS011;8275;48.206;16.340;2024-01-27T00:28:26;1.40;;;0.82;;
16330;SDS011;8275;48.206;16.340;2024-01-27T00:30:55;0.85;;;0.70;;
16330;SDS011;8275;48.206;16.340;2024-01-27T00:33:23;0.95;;;0.80;;
16330;SDS011;8275;48.206;16.340;2024-01-27T00:35:52;1.95;;;0.77;;
16330;SDS011;8275;48.206;16.340;2024-01-27T00:38:21;0.57;;;0.57;;
16330;SDS011;8275;48.206;16.340;2024-01-27T00:40:50;0.52;;;0.52;;
16330;SDS011;8275;48.206;16.340;2024-01-27T00:43:19;0.70;;;0.63;;
16330;SDS011;8275;48.206;16.340;2024-01-27T00:45:48;1.20;;;0.80;;
16330;SDS011;8275;48.206;16.340;2024-01-27T00:48:16;1.45;;;0.70;;
16330;SDS011;8275;48.206;16.340;2024-01-27T00:50:46;0.73;;;0.73;;
16330;SDS011;8275;48.206;16.340;2024-01-27T00:53:14;1.20;;;1.08;;
16330;SDS011;8275;48.206;16.340;2024-01-27T00:55:43;2.00;;;1.15;;
16330;SDS011;8275;48.206;16.340;2024-01-27T00:58:14;0.85;;;0.85;;
16330;SDS011;8275;48.206;16.340;2024-01-27T01:00:42;1.50;;;1.25;;
16330;SDS011;8275;48.206;16.340;2024-01-27T01:03:11;2.28;;;1.48;;
16330;SDS011;8275;48.206;16.340;2024-01-27T01:05:40;4.00;;;2.13;;
16330;SDS011;8275;48.206;16.340;2024-01-27T01:08:08;1.13;;;1.00;;
16330;SDS011;8275;48.206;16.340;2024-01-27T01:10:36;1.67;;;1.30;;
16330;SDS011;8275;48.206;16.340;2024-01-27T01:13:05;3.22;;;1.10;;
16330;SDS011;8275;48.206;16.340;2024-01-27T01:15:35;1.23;;;1.13;;
16330;SDS011;8275;48.206;16.340;2024-01-27T01:18:04;1.17;;;1.05;;
16330;SDS011;8275;48.206;16.340;2024-01-27T01:20:32;1.02;;;1.02;;
16330;SDS011;8275;48.206;16.340;2024-01-27T01:23:01;2.08;;;1.30;;
16330;SDS011;8275;48.206;16.340;2024-01-27T01:25:30;1.08;;;0.98;;
16330;SDS011;8275;48.206;16.340;2024-01-27T01:27:58;0.73;;;0.65;;
16330;SDS011;8275;48.206;16.340;2024-01-27T01:30:27;1.38;;;0.80;;
16330;SDS011;8275;48.206;16.340;2024-01-27T01:32:57;0.98;;;0.85;;
16330;SDS011;8275;48.206;16.340;2024-01-27T01:35:25;1.13;;;1.02;;
16330;SDS011;8275;48.206;16.340;2024-01-27T01:37:54;2.30;;;1.20;;
16330;SDS011;8275;48.206;16.340;2024-01-27T01:40:22;0.75;;;0.75;;
16330;SDS011;8275;48.206;16.340;2024-01-27T01:42:51;1.27;;;0.90;;
16330;SDS011;8275;48.206;16.340;2024-01-27T01:45:19;0.80;;;0.70;;
16330;SDS011;8275;48.206;16.340;2024-01-27T01:47:48;1.15;;;1.05;;
16330;SDS011;8275;48.206;16.340;2024-01-27T01:50:18;2.03;;;1.40;;
16330;SDS011;8275;48.206;16.340;2024-01-27T01:52:47;0.68;;;0.68;;
16330;SDS011;8275;48.206;16.340;2024-01-27T01:55:19;2.03;;;1.10;;
16330;SDS011;8275;48.206;16.340;2024-01-27T01:57:47;1.65;;;0.70;;
16330;SDS011;8275;48.206;16.340;2024-01-27T02:00:16;0.63;;;0.50;;
16330;SDS011;8275;48.206;16.340;2024-01-27T02:02:46;1.13;;;1.05;;
16330;SDS011;8275;48.206;16.340;2024-01-27T02:05:15;4.10;;;0.98;;
16330;SDS011;8275;48.206;16.340;2024-01-27T02:07:45;1.30;;;1.00;;
16330;SDS011;8275;48.206;16.340;2024-01-27T02:10:14;0.90;;;0.68;;
16330;SDS011;8275;48.206;16.340;2024-01-27T02:12:44;2.30;;;0.70;;
16330;SDS011;8275;48.206;16.340;2024-01-27T02:15:13;0.77;;;0.77;;
16330;SDS011;8275;48.206;16.340;2024-01-27T02:17:42;2.00;;;0.90;;
16330;SDS011;8275;48.206;16.340;2024-01-27T02:20:11;1.83;;;1.23;;
16330;SDS011;8275;48.206;16.340;2024-01-27T02:22:39;1.48;;;0.93;;
16330;SDS011;8275;48.206;16.340;2024-01-27T02:25:09;0.90;;;0.90;;
16330;SDS011;8275;48.206;16.340;2024-01-27T02:27:38;1.25;;;0.90;;
16330;SDS011;8275;48.206;16.340;2024-01-27T02:30:07;1.60;;;1.05;;
16330;SDS011;8275;48.206;16.340;2024-01-27T02:32:37;3.22;;;1.45;;
16330;SDS011;8275;48.206;16.340;2024-01-27T02:35:05;1.30;;;1.02;;
16330;SDS011;8275;48.206;16.340;2024-01-27T02:37:35;3.10;;;1.13;;
16330;SDS011;8275;48.206;16.340;2024-01-27T02:40:04;1.48;;;1.40;;
16330;SDS011;8275;48.206;16.340;2024-01-27T02:42:35;1.38;;;1.13;;
16330;SDS011;8275;48.206;16.340;2024-01-27T02:45:05;0.98;;;0.88;;
16330;SDS011;8275;48.206;16.340;2024-01-27T02:47:35;3.45;;;1.50;;
16330;SDS011;8275;48.206;16.340;2024-01-27T02:50:04;1.55;;;0.93;;
16330;SDS011;8275;48.206;16.340;2024-01-27T02:52:34;1.05;;;0.90;;
16330;SDS011;8275;48.206;16.340;2024-01-27T02:55:03;2.83;;;1.10;;
16330;SDS011;8275;48.206;16.340;2024-01-27T02:57:32;0.98;;;0.82;;
16330;SDS011;8275;48.206;16.340;2024-01-27T03:00:02;1.27;;;0.85;;
16330;SDS011;8275;48.206;16.340;2024-01-27T03:02:31;1.25;;;1.13;;
16330;SDS011;8275;48.206;16.340;2024-01-27T03:05:00;5.10;;;1.05;;
16330;SDS011;8275;48.206;16.340;2024-01-27T03:07:28;0.90;;;0.80;;
16330;SDS011;8275;48.206;16.340;2024-01-27T03:09:59;2.60;;;1.25;;
16330;SDS011;8275;48.206;16.340;2024-01-27T03:12:28;1.15;;;1.00;;
16330;SDS011;8275;48.206;16.340;2024-01-27T03:14:57;1.65;;;1.30;;
16330;SDS011;8275;48.206;16.340;2024-01-27T03:17:26;2.15;;;1.20;;
16330;SDS011;8275;48.206;16.340;2024-01-27T03:19:55;2.65;;;1.75;;
16330;SDS011;8275;48.206;16.340;2024-01-27T03:22:23;1.27;;;1.17;;
16330;SDS011;8275;48.206;16.340;2024-01-27T03:24:52;1.77;;;1.67;;
16330;SDS011;8275;48.206;16.340;2024-01-27T03:27:21;4.85;;;1.60;;
16330;SDS011;8275;48.206;16.340;2024-01-27T03:29:50;3.30;;;1.48;;
16330;SDS011;8275;48.206;16.340;2024-01-27T03:32:19;2.72;;;1.85;;
16330;SDS011;8275;48.206;16.340;2024-01-27T03:34:48;2.40;;;1.48;;
16330;SDS011;8275;48.206;16.340;2024-01-27T03:37:17;2.70;;;1.92;;
16330;SDS011;8275;48.206;16.340;2024-01-27T03:39:48;3.00;;;2.10;;
16330;SDS011;8275;48.206;16.340;2024-01-27T03:42:17;2.25;;;1.50;;
16330;SDS011;8275;48.206;16.340;2024-01-27T03:44:45;1.50;;;1.40;;
16330;SDS011;8275;48.206;16.340;2024-01-27T03:47:14;3.70;;;1.35;;
16330;SDS011;8275;48.206;16.340;2024-01-27T03:49:42;1.63;;;1.40;;
16330;SDS011;8275;48.206;16.340;2024-01-27T03:52:13;4.63;;;1.77;;
16330;SDS011;8275;48.206;16.340;2024-01-27T03:54:41;4.65;;;1.42;;
16330;SDS011;8275;48.206;16.340;2024-01-27T03:57:09;1.52;;;1.42;;
16330;SDS011;8275;48.206;16.340;2024-01-27T03:59:39;3.22;;;2.20;;
16330;SDS011;8275;48.206;16.340;2024-01-27T04:02:08;3.55;;;1.38;;
16330;SDS011;8275;48.206;16.340;2024-01-27T04:04:36;2.65;;;1.77;;
16330;SDS011;8275;48.206;16.340;2024-01-27T04:07:05;2.00;;;1.80;;
16330;SDS011;8275;48.206;16.340;2024-01-27T04:09:35;3.60;;;1.30;;
16330;SDS011;8275;48.206;16.340;2024-01-27T04:12:04;2.55;;;1.30;;
16330;SDS011;8275;48.206;16.340;2024-01-27T04:14:34;1.88;;;1.45;;
16330;SDS011;8275;48.206;16.340;2024-01-27T04:17:02;2.15;;;1.85;;
16330;SDS011;8275;48.206;16.340;2024-01-27T04:19:31;1.73;;;1.63;;
16330;SDS011;8275;48.206;16.340;2024-01-27T04:22:00;1.23;;;1.13;;
16330;SDS011;8275;48.206;16.340;2024-01-27T04:24:29;3.35;;;2.03;;
16330;SDS011;8275;48.206;16.340;2024-01-27T04:26:59;2.63;;;1.50;;
16330;SDS011;8275;48.206;16.340;2024-01-27T04:29:28;6.55;;;1.90;;
16330;SDS011;8275;48.206;16.340;2024-01-27T04:31:57;2.47;;;2.25;;
16330;SDS011;8275;48.206;16.340;2024-01-27T04:34:25;2.92;;;1.98;;
16330;SDS011;8275;48.206;16.340;2024-01-27T04:36:54;3.25;;;1.58;;
16330;SDS011;8275;48.206;16.340;2024-01-27T04:39:22;1.25;;;1.25;;
16330;SDS011;8275;48.206;16.340;2024-01-27T04:41:51;2.88;;;2.35;;
16330;SDS011;8275;48.206;16.340;2024-01-27T04:44:21;2.58;;;1.58;;
16330;SDS011;8275;48.206;16.340;2024-01-27T04:46:50;3.05;;;1.50;;
16330;SDS011;8275;48.206;16.340;2024-01-27T04:49:18;2.63;;;2.40;;
16330;SDS011;8275;48.206;16.340;2024-01-27T04:51:47;3.03;;;2.20;;
16330;SDS011;8275;48.206;16.340;2024-01-27T04:54:15;3.28;;;2.13;;
16330;SDS011;8275;48.206;16.340;2024-01-27T04:56:44;8.40;;;1.92;;
16330;SDS011;8275;48.206;16.340;2024-01-27T04:59:13;5.90;;;2.83;;
16330;SDS011;8275;48.206;16.340;2024-01-27T05:01:45;3.10;;;2.05;;
16330;SDS011;8275;48.206;16.340;2024-01-27T05:04:13;2.33;;;1.75;;
16330;SDS011;8275;48.206;16.340;2024-01-27T05:06:43;2.97;;;1.48;;
16330;SDS011;8275;48.206;16.340;2024-01-27T05:09:13;1.88;;;1.48;;
16330;SDS011;8275;48.206;16.340;2024-01-27T05:11:43;1.35;;;1.00;;
16330;SDS011;8275;48.206;16.340;2024-01-27T05:14:12;2.25;;;1.83;;
16330;SDS011;8275;48.206;16.340;2024-01-27T05:16:40;1.75;;;1.55;;
16330;SDS011;8275;48.206;16.340;2024-01-27T05:19:10;4.85;;;1.88;;
16330;SDS011;8275;48.206;16.340;2024-01-27T05:21:39;2.63;;;1.98;;
16330;SDS011;8275;48.206;16.340;2024-01-27T05:24:07;3.33;;;1.63;;
16330;SDS011;8275;48.206;16.340;2024-01-27T05:26:35;2.75;;;1.75;;
16330;SDS011;8275;48.206;16.340;2024-01-27T05:29:04;2.42;;;2.10;;
16330;SDS011;8275;48.206;16.340;2024-01-27T05:31:32;1.77;;;1.63;;
16330;SDS011;8275;48.206;16.340;2024-01-27T05:34:01;5.28;;;1.40;;
16330;SDS011;8275;48.206;16.340;2024-01-27T05:36:31;1.60;;;1.48;;
16330;SDS011;8275;48.206;16.340;2024-01-27T05:39:00;1.92;;;1.75;;
16330;SDS011;8275;48.206;16.340;2024-01-27T05:41:30;2.90;;;1.98;;
16330;SDS011;8275;48.206;16.340;2024-01-27T05:43:58;2.15;;;1.80;;
16330;SDS011;8275;48.206;16.340;2024-01-27T05:46:27;1.60;;;1.20;;
16330;SDS011;8275;48.206;16.340;2024-01-27T05:48:55;4.72;;;2.15;;
16330;SDS011;8275;48.206;16.340;2024-01-27T05:51:28;4.13;;;2.45;;
16330;SDS011;8275;48.206;16.340;2024-01-27T05:53:58;6.03;;;2.05;;
16330;SDS011;8275;48.206;16.340;2024-01-27T05:56:28;2.97;;;1.92;;
16330;SDS011;8275;48.206;16.340;2024-01-27T05:58:56;4.25;;;2.05;;
16330;SDS011;8275;48.206;16.340;2024-01-27T06:01:25;2.63;;;1.80;;
16330;SDS011;8275;48.206;16.340;2024-01-27T06:03:53;1.75;;;1.60;;
16330;SDS011;8275;48.206;16.340;2024-01-27T06:06:22;3.05;;;1.55;;
16330;SDS011;8275;48.206;16.340;2024-01-27T06:08:52;3.72;;;2.20;;
16330;SDS011;8275;48.206;16.340;2024-01-27T06:11:23;3.05;;;1.30;;
16330;SDS011;8275;48.206;16.340;2024-01-27T06:13:52;1.90;;;1.48;;
16330;SDS011;8275;48.206;16.340;2024-01-27T06:16:21;1.40;;;1.30;;
16330;SDS011;8275;48.206;16.340;2024-01-27T06:18:49;1.52;;;1.42;;
16330;SDS011;8275;48.206;16.340;2024-01-27T06:21:18;2.72;;;1.85;;
16330;SDS011;8275;48.206;16.340;2024-01-27T06:23:47;1.83;;;1.60;;
16330;SDS011;8275;48.206;16.340;2024-01-27T06:26:16;2.78;;;1.60;;
16330;SDS011;8275;48.206;16.340;2024-01-27T06:28:47;2.00;;;1.50;;
16330;SDS011;8275;48.206;16.340;2024-01-27T06:31:15;6.35;;;2.15;;
16330;SDS011;8275;48.206;16.340;2024-01-27T06:33:44;3.05;;;2.28;;
16330;SDS011;8275;48.206;16.340;2024-01-27T06:36:12;14.35;;;2.33;;
16330;SDS011;8275;48.206;16.340;2024-01-27T06:38:41;2.95;;;2.42;;
16330;SDS011;8275;48.206;16.340;2024-01-27T06:41:10;4.82;;;2.67;;
16330;SDS011;8275;48.206;16.340;2024-01-27T06:43:39;3.33;;;1.77;;
16330;SDS011;8275;48.206;16.340;2024-01-27T06:46:08;4.30;;;2.05;;
16330;SDS011;8275;48.206;16.340;2024-01-27T06:48:36;2.83;;;1.70;;
16330;SDS011;8275;48.206;16.340;2024-01-27T06:51:05;1.35;;;1.25;;
16330;SDS011;8275;48.206;16.340;2024-01-27T06:53:34;1.73;;;1.40;;
16330;SDS011;8275;48.206;16.340;2024-01-27T06:56:03;3.80;;;2.40;;
16330;SDS011;8275;48.206;16.340;2024-01-27T06:58:31;2.03;;;1.65;;
16330;SDS011;8275;48.206;16.340;2024-01-27T07:01:03;4.07;;;2.05;;
16330;SDS011;8275;48.206;16.340;2024-01-27T07:03:31;3.47;;;1.98;;
16330;SDS011;8275;48.206;16.340;2024-01-27T07:06:00;2.55;;;1.40;;
16330;SDS011;8275;48.206;16.340;2024-01-27T07:08:28;1.70;;;1.40;;
16330;SDS011;8275;48.206;16.340;2024-01-27T07:11:03;4.47;;;2.17;;
16330;SDS011;8275;48.206;16.340;2024-01-27T07:13:32;6.72;;;2.45;;
16330;SDS011;8275;48.206;16.340;2024-01-27T07:16:00;4.43;;;2.95;;
16330;SDS011;8275;48.206;16.340;2024-01-27T07:18:32;7.28;;;3.28;;
16330;SDS011;8275;48.206;16.340;2024-01-27T07:21:02;3.67;;;2.47;;
16330;SDS011;8275;48.206;16.340;2024-01-27T07:23:34;3.00;;;2.40;;
16330;SDS011;8275;48.206;16.340;2024-01-27T07:26:03;2.83;;;1.95;;
16330;SDS011;8275;48.206;16.340;2024-01-27T07:28:32;4.20;;;2.67;;
16330;SDS011;8275;48.206;16.340;2024-01-27T07:31:00;2.80;;;2.13;;
16330;SDS011;8275;48.206;16.340;2024-01-27T07:33:31;3.53;;;2.45;;
16330;SDS011;8275;48.206;16.340;2024-01-27T07:35:59;2.97;;;2.72;;
16330;SDS011;8275;48.206;16.340;2024-01-27T07:38:28;2.92;;;2.63;;
16330;SDS011;8275;48.206;16.340;2024-01-27T07:40:56;5.97;;;3.30;;
16330;SDS011;8275;48.206;16.340;2024-01-27T07:43:25;3.30;;;2.33;;
16330;SDS011;8275;48.206;16.340;2024-01-27T07:45:54;6.38;;;3.05;;
16330;SDS011;8275;48.206;16.340;2024-01-27T07:48:24;4.28;;;2.15;;
16330;SDS011;8275;48.206;16.340;2024-01-27T07:50:52;5.80;;;2.65;;
16330;SDS011;8275;48.206;16.340;2024-01-27T07:53:22;3.97;;;2.95;;
16330;SDS011;8275;48.206;16.340;2024-01-27T07:55:51;5.95;;;2.50;;
16330;SDS011;8275;48.206;16.340;2024-01-27T07:58:20;5.18;;;2.03;;
16330;SDS011;8275;48.206;16.340;2024-01-27T08:00:49;3.90;;;2.22;;
16330;SDS011;8275;48.206;16.340;2024-01-27T08:03:17;5.13;;;2.50;;
16330;SDS011;8275;48.206;16.340;2024-01-27T08:05:47;3.58;;;2.85;;
16330;SDS011;8275;48.206;16.340;2024-01-27T08:08:16;4.57;;;1.80;;
16330;SDS011;8275;48.206;16.340;2024-01-27T08:10:44;7.40;;;3.15;;
16330;SDS011;8275;48.206;16.340;2024-01-27T08:13:13;3.45;;;2.20;;
16330;SDS011;8275;48.206;16.340;2024-01-27T08:15:41;5.00;;;2.10;;
16330;SDS011;8275;48.206;16.340;2024-01-27T08:18:10;4.53;;;2.33;;
16330;SDS011;8275;48.206;16.340;2024-01-27T08:20:38;4.90;;;2.75;;
16330;SDS011;8275;48.206;16.340;2024-01-27T08:23:09;5.15;;;2.65;;
16330;SDS011;8275;48.206;16.340;2024-01-27T08:25:38;2.50;;;2.30;;
16330;SDS011;8275;48.206;16.340;2024-01-27T08:28:07;2.97;;;2.55;;
16330;SDS011;8275;48.206;16.340;2024-01-27T08:30:36;7.53;;;3.55;;
16330;SDS011;8275;48.206;16.340;2024-01-27T08:33:05;5.47;;;2.90;;
16330;SDS011;8275;48.206;16.340;2024-01-27T08:35:34;3.25;;;2.60;;
16330;SDS011;8275;48.206;16.340;2024-01-27T08:38:02;5.25;;;2.88;;
16330;SDS011;8275;48.206;16.340;2024-01-27T08:40:33;2.63;;;2.42;;
16330;SDS011;8275;48.206;16.340;2024-01-27T08:43:03;4.07;;;2.55;;
16330;SDS011;8275;48.206;16.340;2024-01-27T08:45:32;2.97;;;2.70;;
16330;SDS011;8275;48.206;16.340;2024-01-27T08:48:01;3.03;;;2.22;;
16330;SDS011;8275;48.206;16.340;2024-01-27T08:50:29;3.10;;;2.78;;
16330;SDS011;8275;48.206;16.340;2024-01-27T08:52:58;2.90;;;2.33;;
16330;SDS011;8275;48.206;16.340;2024-01-27T08:55:26;5.57;;;3.47;;
16330;SDS011;8275;48.206;16.340;2024-01-27T08:57:56;2.95;;;2.75;;
16330;SDS011;8275;48.206;16.340;2024-01-27T09:00:25;2.90;;;2.55;;
16330;SDS011;8275;48.206;16.340;2024-01-27T09:02:54;2.80;;;1.92;;
16330;SDS011;8275;48.206;16.340;2024-01-27T09:05:23;4.80;;;2.33;;
16330;SDS011;8275;48.206;16.340;2024-01-27T09:07:54;6.20;;;3.92;;
16330;SDS011;8275;48.206;16.340;2024-01-27T09:10:23;5.38;;;2.25;;
16330;SDS011;8275;48.206;16.340;2024-01-27T09:12:51;4.55;;;2.40;;
16330;SDS011;8275;48.206;16.340;2024-01-27T09:15:21;2.55;;;2.35;;
16330;SDS011;8275;48.206;16.340;2024-01-27T09:17:52;3.70;;;2.45;;
16330;SDS011;8275;48.206;16.340;2024-01-27T09:20:21;5.15;;;3.20;;
16330;SDS011;8275;48.206;16.340;2024-01-27T09:22:50;3.10;;;2.65;;
16330;SDS011;8275;48.206;16.340;2024-01-27T09:25:18;5.45;;;3.33;;
16330;SDS011;8275;48.206;16.340;2024-01-27T09:27:47;6.45;;;3.90;;
16330;SDS011;8275;48.206;16.340;2024-01-27T09:30:15;5.90;;;3.03;;
16330;SDS011;8275;48.206;16.340;2024-01-27T09:32:47;3.25;;;2.65;;
16330;SDS011;8275;48.206;16.340;2024-01-27T09:35:15;5.10;;;2.40;;
16330;SDS011;8275;48.206;16.340;2024-01-27T09:37:44;3.75;;;2.70;;
16330;SDS011;8275;48.206;16.340;2024-01-27T09:40:13;3.15;;;2.85;;
16330;SDS011;8275;48.206;16.340;2024-01-27T09:42:42;3.67;;;2.65;;
16330;SDS011;8275;48.206;16.340;2024-01-27T09:45:19;3.20;;;2.53;;
16330;SDS011;8275;48.206;16.340;2024-01-27T09:47:50;4.60;;;3.47;;
16330;SDS011;8275;48.206;16.340;2024-01-27T09:50:20;3.85;;;2.30;;
16330;SDS011;8275;48.206;16.340;2024-01-27T09:52:50;4.22;;;2.42;;
16330;SDS011;8275;48.206;16.340;2024-01-27T09:55:18;8.35;;;3.42;;
16330;SDS011;8275;48.206;16.340;2024-01-27T09:57:47;2.55;;;2.15;;
16330;SDS011;8275;48.206;16.340;2024-01-27T10:00:16;4.53;;;2.90;;
16330;SDS011;8275;48.206;16.340;2024-01-27T10:02:47;4.07;;;2.95;;
16330;SDS011;8275;48.206;16.340;2024-01-27T10:05:17;4.00;;;3.25;;
16330;SDS011;8275;48.206;16.340;2024-01-27T10:07:46;2.13;;;1.92;;
16330;SDS011;8275;48.206;16.340;2024-01-27T10:10:15;6.25;;;2.60;;
16330;SDS011;8275;48.206;16.340;2024-01-27T10:12:44;4.88;;;3.10;;
16330;SDS011;8275;48.206;16.340;2024-01-27T10:15:19;5.95;;;3.15;;
16330;SDS011;8275;48.206;16.340;2024-01-27T10:17:48;4.47;;;2.33;;
16330;SDS011;8275;48.206;16.340;2024-01-27T10:20:19;3.67;;;3.38;;
16330;SDS011;8275;48.206;16.340;2024-01-27T10:22:47;6.00;;;2.42;;
16330;SDS011;8275;48.206;16.340;2024-01-27T10:25:16;3.63;;;2.70;;
16330;SDS011;8275;48.206;16.340;2024-01-27T10:27:45;2.20;;;1.92;;
16330;SDS011;8275;48.206;16.340;2024-01-27T10:30:15;2.22;;;2.03;;
16330;SDS011;8275;48.206;16.340;2024-01-27T10:32:54;5.80;;;2.42;;
16330;SDS011;8275;48.206;16.340;2024-01-27T10:35:25;4.07;;;2.45;;
16330;SDS011;8275;48.206;16.340;2024-01-27T10:38:07;3.97;;;2.17;;
16330;SDS011;8275;48.206;16.340;2024-01-27T10:40:36;4.32;;;2.70;;
16330;SDS011;8275;48.206;16.340;2024-01-27T10:43:05;4.07;;;3.20;;
16330;SDS011;8275;48.206;16.340;2024-01-27T10:45:36;5.72;;;3.15;;
16330;SDS011;8275;48.206;16.340;2024-01-27T10:48:06;3.80;;;2.83;;
16330;SDS011;8275;48.206;16.340;2024-01-27T10:50:37;6.20;;;3.13;;
16330;SDS011;8275;48.206;16.340;2024-01-27T10:53:19;4.00;;;2.70;;
16330;SDS011;8275;48.206;16.340;2024-01-27T10:55:53;5.32;;;2.70;;
16330;SDS011;8275;48.206;16.340;2024-01-27T10:58:25;2.50;;;2.30;;
16330;SDS011;8275;48.206;16.340;2024-01-27T11:00:56;5.22;;;2.45;;
16330;SDS011;8275;48.206;16.340;2024-01-27T11:03:25;3.38;;;2.47;;
16330;SDS011;8275;48.206;16.340;2024-01-27T11:05:56;3.47;;;3.17;;
16330;SDS011;8275;48.206;16.340;2024-01-27T11:08:26;2.30;;;2.10;;
16330;SDS011;8275;48.206;16.340;2024-01-27T11:10:56;4.35;;;3.42;;
16330;SDS011;8275;48.206;16.340;2024-01-27T11:13:26;2.97;;;2.67;;
16330;SDS011;8275;48.206;16.340;2024-01-27T11:15:56;4.65;;;3.63;;
16330;SDS011;8275;48.206;16.340;2024-01-27T11:18:28;5.43;;;3.45;;
16330;SDS011;8275;48.206;16.340;2024-01-27T11:20:58;7.20;;;3.47;;
16330;SDS011;8275;48.206;16.340;2024-01-27T11:23:35;6.32;;;3.17;;
16330;SDS011;8275;48.206;16.340;2024-01-27T11:26:04;4.03;;;3.30;;
16330;SDS011;8275;48.206;16.340;2024-01-27T11:28:33;3.60;;;3.30;;
16330;SDS011;8275;48.206;16.340;2024-01-27T11:31:03;4.78;;;2.80;;
16330;SDS011;8275;48.206;16.340;2024-01-27T11:33:33;4.30;;;2.85;;
16330;SDS011;8275;48.206;16.340;2024-01-27T11:36:14;3.80;;;3.05;;
16330;SDS011;8275;48.206;16.340;2024-01-27T11:38:50;6.00;;;3.17;;
16330;SDS011;8275;48.206;16.340;2024-01-27T11:41:27;3.55;;;3.25;;
16330;SDS011;8275;48.206;16.340;2024-01-27T11:43:57;5.10;;;3.35;;
16330;SDS011;8275;48.206;16.340;2024-01-27T11:46:27;3.50;;;2.78;;
16330;SDS011;8275;48.206;16.340;2024-01-27T11:48:56;6.68;;;3.35;;
16330;SDS011;8275;48.206;16.340;2024-01-27T11:51:25;6.47;;;3.17;;
16330;SDS011;8275;48.206;16.340;2024-01-27T11:53:56;2.33;;;2.15;;
16330;SDS011;8275;48.206;16.340;2024-01-27T11:56:25;4.35;;;2.22;;
16330;SDS011;8275;48.206;16.340;2024-01-27T11:58:54;7.85;;;3.25;;
16330;SDS011;8275;48.206;16.340;2024-01-27T12:01:23;3.80;;;2.35;;
16330;SDS011;8275;48.206;16.340;2024-01-27T12:03:52;4.38;;;2.75;;
16330;SDS011;8275;48.206;16.340;2024-01-27T12:06:20;6.03;;;2.33;;
16330;SDS011;8275;48.206;16.340;2024-01-27T12:08:52;5.80;;;2.97;;
16330;SDS011;8275;48.206;16.340;2024-01-27T12:11:24;3.60;;;3.10;;
16330;SDS011;8275;48.206;16.340;2024-01-27T12:13:54;4.80;;;2.58;;
16330;SDS011;8275;48.206;16.340;2024-01-27T12:16:23;3.30;;;2.63;;
16330;SDS011;8275;48.206;16.340;2024-01-27T12:18:52;3.50;;;2.95;;
16330;SDS011;8275;48.206;16.340;2024-01-27T12:21:22;5.60;;;3.10;;
16330;SDS011;8275;48.206;16.340;2024-01-27T12:23:51;6.63;;;3.58;;
16330;SDS011;8275;48.206;16.340;2024-01-27T12:26:21;3.35;;;2.55;;
16330;SDS011;8275;48.206;16.340;2024-01-27T12:28:51;3.83;;;2.13;;
16330;SDS011;8275;48.206;16.340;2024-01-27T12:31:24;3.40;;;3.00;;
16330;SDS011;8275;48.206;16.340;2024-01-27T12:33:55;5.15;;;2.70;;
16330;SDS011;8275;48.206;16.340;2024-01-27T12:36:26;3.97;;;1.98;;
16330;SDS011;8275;48.206;16.340;2024-01-27T12:38:55;5.13;;;2.83;;
16330;SDS011;8275;48.206;16.340;2024-01-27T12:41:24;8.02;;;2.70;;
16330;SDS011;8275;48.206;16.340;2024-01-27T12:43:54;6.72;;;2.78;;
16330;SDS011;8275;48.206;16.340;2024-01-27T12:46:23;3.40;;;2.70;;
16330;SDS011;8275;48.206;16.340;2024-01-27T12:48:51;7.70;;;3.53;;
16330;SDS011;8275;48.206;16.340;2024-01-27T12:51:21;4.85;;;3.15;;
16330;SDS011;8275;48.206;16.340;2024-01-27T12:53:51;5.47;;;3.20;;
16330;SDS011;8275;48.206;16.340;2024-01-27T12:56:19;5.20;;;3.30;;
16330;SDS011;8275;48.206;16.340;2024-01-27T12:58:48;4.93;;;2.97;;
16330;SDS011;8275;48.206;16.340;2024-01-27T13:01:19;5.93;;;2.58;;
16330;SDS011;8275;48.206;16.340;2024-01-27T13:03:47;7.55;;;3.33;;
16330;SDS011;8275;48.206;16.340;2024-01-27T13:06:17;7.15;;;3.85;;
16330;SDS011;8275;48.206;16.340;2024-01-27T13:08:47;4.75;;;2.85;;
16330;SDS011;8275;48.206;16.340;2024-01-27T13:11:15;8.80;;;3.33;;
16330;SDS011;8275;48.206;16.340;2024-01-27T13:13:44;5.63;;;2.90;;
16330;SDS011;8275;48.206;16.340;2024-01-27T13:16:16;5.20;;;3.80;;
16330;SDS011;8275;48.206;16.340;2024-01-27T13:18:46;4.10;;;2.80;;
16330;SDS011;8275;48.206;16.340;2024-01-27T13:21:14;6.20;;;3.33;;
16330;SDS011;8275;48.206;16.340;2024-01-27T13:23:43;3.15;;;2.60;;
16330;SDS011;8275;48.206;16.340;2024-01-27T13:26:12;8.70;;;4.00;;
16330;SDS011;8275;48.206;16.340;2024-01-27T13:28:45;7.05;;;3.20;;
16330;SDS011;8275;48.206;16.340;2024-01-27T13:31:16;3.38;;;2.95;;
16330;SDS011;8275;48.206;16.340;2024-01-27T13:33:46;4.20;;;2.95;;
16330;SDS011;8275;48.206;16.340;2024-01-27T13:36:15;3.25;;;2.92;;
16330;SDS011;8275;48.206;16.340;2024-01-27T13:38:44;3.70;;;2.72;;
16330;SDS011;8275;48.206;16.340;2024-01-27T13:41:13;3.30;;;2.65;;
16330;SDS011;8275;48.206;16.340;2024-01-27T13:43:42;4.55;;;2.92;;
16330;SDS011;8275;48.206;16.340;2024-01-27T13:46:10;3.83;;;3.50;;
16330;SDS011;8275;48.206;16.340;2024-01-27T13:48:39;4.90;;;3.10;;
16330;SDS011;8275;48.206;16.340;2024-01-27T13:51:10;8.50;;;3.03;;
16330;SDS011;8275;48.206;16.340;2024-01-27T13:53:38;3.28;;;2.63;;
16330;SDS011;8275;48.206;16.340;2024-01-27T13:56:13;5.53;;;3.72;;
16330;SDS011;8275;48.206;16.340;2024-01-27T13:58:42;6.60;;;3.40;;
16330;SDS011;8275;48.206;16.340;2024-01-27T14:01:10;6.40;;;3.55;;
16330;SDS011;8275;48.206;16.340;2024-01-27T14:03:39;4.75;;;3.17;;
16330;SDS011;8275;48.206;16.340;2024-01-27T14:06:09;3.28;;;2.35;;
16330;SDS011;8275;48.206;16.340;2024-01-27T14:08:40;6.35;;;3.60;;
16330;SDS011;8275;48.206;16.340;2024-01-27T14:11:09;7.03;;;3.47;;
16330;SDS011;8275;48.206;16.340;2024-01-27T14:13:37;8.02;;;4.63;;
16330;SDS011;8275;48.206;16.340;2024-01-27T14:16:06;5.88;;;4.28;;
16330;SDS011;8275;48.206;16.340;2024-01-27T14:18:34;5.65;;;3.00;;
16330;SDS011;8275;48.206;16.340;2024-01-27T14:21:03;5.07;;;3.58;;
16330;SDS011;8275;48.206;16.340;2024-01-27T14:23:33;5.38;;;3.63;;
16330;SDS011;8275;48.206;16.340;2024-01-27T14:26:02;6.30;;;3.72;;
16330;SDS011;8275;48.206;16.340;2024-01-27T14:28:31;7.90;;;3.55;;
16330;SDS011;8275;48.206;16.340;2024-01-27T14:30:59;6.97;;;3.58;;
16330;SDS011;8275;48.206;16.340;2024-01-27T14:33:28;5.85;;;2.60;;
16330;SDS011;8275;48.206;16.340;2024-01-27T14:35:56;6.55;;;2.55;;
16330;SDS011;8275;48.206;16.340;2024-01-27T14:38:25;3.90;;;2.63;;
16330;SDS011;8275;48.206;16.340;2024-01-27T14:40:55;3.85;;;3.22;;
16330;SDS011;8275;48.206;16.340;2024-01-27T14:43:23;3.95;;;3.20;;
16330;SDS011;8275;48.206;16.340;2024-01-27T14:45:53;6.28;;;3.17;;
16330;SDS011;8275;48.206;16.340;2024-01-27T14:48:22;3.35;;;3.05;;
16330;SDS011;8275;48.206;16.340;2024-01-27T14:50:52;2.83;;;2.28;;
16330;SDS011;8275;48.206;16.340;2024-01-27T14:53:25;2.92;;;2.53;;
16330;SDS011;8275;48.206;16.340;2024-01-27T14:55:55;3.75;;;2.65;;
16330;SDS011;8275;48.206;16.340;2024-01-27T14:58:24;4.18;;;3.33;;
16330;SDS011;8275;48.206;16.340;2024-01-27T15:00:52;4.72;;;3.55;;